Time;durP1;ratioP1;P1;durP2;ratioP2;P2;SDS_P1;SDS_P2;PMS_P1;PMS_P2;Temp;Humidity;BMP_temperature;BMP_pressure;BME280_temperature;BME280_humidity;BME280_pressure;Samples;Min_cycle;Max_cycle;Signal;HPM_P1;HPM_P2
2022/11/21 00:05:08;;;;;;;8.50;3.10;;;8.90;99.90;;;;;;6244567;22;20471;-85
2022/11/21 00:48:23;;;;;;;11.97;3.50;;;8.90;99.90;;;;;;6234186;23;20467;-86
2022/11/21 00:56:55;;;;;;;;;;;;;;;;;;;;;
2022/11/21 01:41:02;;;;;;;6.17;2.23;;;8.80;99.90;;;;;;6148355;23;20449;-85
2022/11/21 01:56:17;;;;;;;10.20;2.73;;;8.90;99.90;;;;;;6209499;23;21144;-86
2022/11/21 04:09:36;;;;;;;4.60;2.53;;;8.70;99.90;;;;;;5864832;24;20723;-87
2022/11/21 05:15:34;;;;;;;7.00;4.60;;;8.60;99.90;;;;;;6212929;23;20475;-84
2022/11/21 05:19:34;;;;;;;5.47;4.00;;;8.50;99.90;;;;;;6210182;23;20790;-85
2022/11/21 05:27:13;;;;;;;;;;;;;;;;;;;;;
2022/11/21 05:34:26;;;;;;;9.87;5.47;;;8.60;99.90;;;;;;5896804;24;20403;-85
2022/11/21 05:38:46;;;;;;;6.70;5.17;;;8.60;99.90;;;;;;5827098;24;20410;-85
2022/11/21 05:55:52;;;;;;;7.17;4.87;;;8.60;99.90;;;;;;6222224;23;20432;-87
2022/11/21 06:07:07;;;;;;;;;;;;;;;;;;;;;
2022/11/21 06:45:14;;;;;;;;;;;;;;;;;;;;;
2022/11/21 06:48:51;;;;;;;8.53;6.13;;;8.60;99.90;;;;;;6147193;23;20461;-84
2022/11/21 08:29:33;;;;;;;;;;;;;;;;;;;;;
2022/11/21 09:20:47;;;;;;;6.17;5.30;;;9.20;99.90;;;;;;6123667;23;20451;-88
2022/11/21 10:04:01;;;;;;;;;;;;;;;;;;;;;
2022/11/21 10:07:56;;;;;;;;;;;;;;;;;;;;;
2022/11/21 11:35:56;;;;;;;4.50;1.10;;;11.30;96.30;;;;;;6236679;23;20523;-84
2022/11/21 11:50:12;;;;;;;0.83;0.70;;;11.60;95.60;;;;;;6146664;23;20601;-86
2022/11/21 11:53:57;;;;;;;1.93;1.10;;;11.70;95.00;;;;;;6142880;23;20446;-85
2022/11/21 12:13:00;;;;;;;4.23;1.20;;;11.30;95.40;;;;;;6208163;22;20510;-86
2022/11/21 12:16:06;;;;;;;3.13;1.50;;;11.30;95.10;;;;;;6211716;23;20424;-87
2022/11/21 12:26:35;;;;;;;1.50;1.40;;;11.10;94.10;;;;;;6067385;23;20405;-86
2022/11/21 12:29:50;;;;;;;3.87;1.60;;;10.80;94.60;;;;;;6092001;23;20392;-87
2022/11/21 12:55:21;;;;;;;2.67;1.00;;;11.10;93.00;;;;;;6127637;23;20423;-85
2022/11/21 12:58:40;;;;;;;3.90;1.17;;;11.20;93.00;;;;;;6155930;23;20489;-85
2022/11/21 13:02:03;;;;;;;4.23;1.47;;;11.10;92.50;;;;;;5998633;23;20455;-86
2022/11/21 13:05:09;;;;;;;2.00;1.27;;;11.10;92.30;;;;;;6138924;22;20457;-86
2022/11/21 13:08:41;;;;;;;8.47;1.23;;;11.00;92.50;;;;;;6210789;23;20615;-86
2022/11/21 13:11:58;;;;;;;2.37;1.00;;;11.10;91.90;;;;;;6187897;23;20424;-87
2022/11/21 13:15:29;;;;;;;;;;;;;;;;;;;;;
2022/11/21 13:18:46;;;;;;;1.70;1.20;;;10.90;92.20;;;;;;6164460;23;20402;-84
2022/11/21 13:21:54;;;;;;;1.30;1.20;;;11.00;92.50;;;;;;6070765;23;20437;-85
2022/11/21 13:24:58;;;;;;;8.30;2.13;;;11.00;93.60;;;;;;6158043;23;20457;-87
2022/11/21 13:28:24;;;;;;;3.03;1.30;;;11.10;93.40;;;;;;6155554;23;20894;-84
2022/11/21 13:34:59;;;;;;;1.73;1.20;;;11.00;93.40;;;;;;6183290;23;20453;-87
2022/11/21 13:38:20;;;;;;;2.73;1.30;;;11.00;93.50;;;;;;6178745;23;20466;-86
2022/11/21 13:44:53;;;;;;;1.27;1.00;;;11.10;93.50;;;;;;6182780;23;20402;-87
2022/11/21 13:51:48;;;;;;;3.97;1.43;;;10.90;93.10;;;;;;6108554;23;20395;-86
2022/11/21 13:58:33;;;;;;;1.60;0.87;;;11.00;93.70;;;;;;6119459;23;20420;-85
2022/11/21 14:01:35;;;;;;;5.00;1.00;;;11.10;92.60;;;;;;6126374;23;20452;-85
2022/11/21 14:05:00;;;;;;;1.40;1.00;;;11.00;92.70;;;;;;6120425;23;20467;-86
2022/11/21 14:08:15;;;;;;;3.03;0.93;;;10.90;92.70;;;;;;6118071;23;20399;-85
2022/11/21 14:10:54;;;;;;;1.80;0.83;;;10.90;92.70;;;;;;6119826;23;20498;-85
2022/11/21 14:13:50;;;;;;;1.73;1.00;;;10.80;92.50;;;;;;6118236;23;21015;-86
2022/11/21 14:20:12;;;;;;;2.80;1.27;;;10.80;92.90;;;;;;6002606;23;20430;-85
2022/11/21 14:23:17;;;;;;;1.83;0.90;;;10.80;93.10;;;;;;6101691;23;20426;-84
2022/11/21 14:29:43;;;;;;;1.13;0.73;;;10.60;93.00;;;;;;6263747;22;20385;-87
2022/11/21 14:36:42;;;;;;;1.20;1.10;;;10.50;93.60;;;;;;6123159;23;20468;-86
2022/11/21 14:43:27;;;;;;;2.50;0.90;;;10.70;93.50;;;;;;6206013;23;20468;-87
2022/11/21 14:46:21;;;;;;;4.80;1.40;;;10.70;93.80;;;;;;6164080;23;20397;-88
2022/11/21 14:49:22;;;;;;;3.73;1.17;;;10.40;94.40;;;;;;6188960;23;20417;-85
2022/11/21 14:52:34;;;;;;;3.47;0.97;;;10.50;94.30;;;;;;6176144;23;20483;-84
2022/11/21 14:59:45;;;;;;;6.77;2.60;;;10.10;95.10;;;;;;5953767;24;20624;-86
2022/11/21 15:11:09;;;;;;;3.40;1.20;;;10.10;95.10;;;;;;6001293;23;20392;-85
2022/11/21 15:15:00;;;;;;;;;;;;;;;;;;;;;
2022/11/21 15:26:39;;;;;;;2.80;1.90;;;10.10;95.90;;;;;;5890567;24;20421;-86
2022/11/21 15:29:52;;;;;;;5.13;1.50;;;10.00;95.90;;;;;;5896040;24;20471;-86
2022/11/21 15:33:24;;;;;;;3.40;1.63;;;9.90;96.90;;;;;;5865939;24;20490;-88
2022/11/21 15:36:12;;;;;;;2.70;1.33;;;10.10;96.30;;;;;;5931669;24;20420;-86
2022/11/21 15:39:29;;;;;;;4.03;2.07;;;10.10;96.20;;;;;;5953491;24;20424;-85
2022/11/21 15:42:44;;;;;;;4.80;1.80;;;10.10;96.00;;;;;;5846405;24;20460;-86
2022/11/21 15:53:33;;;;;;;5.53;1.90;;;9.90;97.10;;;;;;5972949;24;20436;-86
2022/11/21 15:56:50;;;;;;;2.23;1.63;;;9.80;96.80;;;;;;5981641;23;20677;-88
2022/11/21 16:00:34;;;;;;;;;;;;;;;;;;;;;
2022/11/21 16:04:06;;;;;;;3.00;1.80;;;9.90;97.00;;;;;;5984866;23;20435;-86
2022/11/21 16:07:31;;;;;;;3.30;1.60;;;9.80;97.20;;;;;;5997794;23;20518;-83
2022/11/21 16:11:08;;;;;;;4.03;1.80;;;9.80;97.30;;;;;;6008439;23;20409;-84
2022/11/21 16:17:44;;;;;;;3.60;1.83;;;9.80;97.60;;;;;;6002413;23;21310;-85
2022/11/21 16:21:13;;;;;;;2.53;1.87;;;9.60;97.80;;;;;;5965954;23;20405;-85
2022/11/21 16:28:25;;;;;;;3.07;1.73;;;9.70;98.60;;;;;;5890075;24;20417;-86
2022/11/21 16:53:08;;;;;;;3.43;2.37;;;9.30;99.50;;;;;;6255108;22;20317;-86
2022/11/21 16:56:44;;;;;;;10.33;3.00;;;10.00;98.60;;;;;;6098484;23;20432;-86
2022/11/21 17:06:53;;;;;;;5.17;2.70;;;9.70;99.40;;;;;;6242051;23;20517;-87
2022/11/21 17:10:26;;;;;;;7.13;2.37;;;9.50;99.60;;;;;;6248515;23;20419;-85
2022/11/21 17:22:55;;;;;;;9.60;2.90;;;9.40;99.90;;;;;;6151888;23;20461;-86
2022/11/21 17:26:24;;;;;;;6.43;3.00;;;9.50;99.60;;;;;;6131370;23;20484;-85
2022/11/21 17:29:32;;;;;;;4.47;1.80;;;9.40;99.80;;;;;;6183069;23;20401;-87
2022/11/21 17:32:37;;;;;;;5.83;3.07;;;9.40;99.70;;;;;;6176848;23;20991;-86
2022/11/21 17:35:18;;;;;;;5.00;2.57;;;9.20;99.80;;;;;;6186048;23;20524;-88
2022/11/21 17:38:13;;;;;;;4.43;2.23;;;9.40;99.90;;;;;;6188310;23;20476;-85
2022/11/21 17:41:01;;;;;;;4.03;2.67;;;9.40;99.90;;;;;;6197750;23;20456;-87
2022/11/21 17:43:37;;;;;;;9.50;4.23;;;9.40;99.90;;;;;;6187572;23;20428;-85
2022/11/21 17:46:17;;;;;;;6.10;3.00;;;9.50;99.70;;;;;;6191914;23;20409;-87
2022/11/21 17:48:56;;;;;;;5.17;2.77;;;9.40;99.50;;;;;;6189025;23;20420;-87
2022/11/21 17:51:33;;;;;;;4.80;2.70;;;9.40;99.50;;;;;;6187931;23;20425;-85
2022/11/21 17:54:12;;;;;;;9.07;4.03;;;9.40;99.50;;;;;;6195565;23;20422;-88
2022/11/21 17:56:46;;;;;;;5.00;2.83;;;9.30;99.70;;;;;;6199480;23;20398;-89
2022/11/21 17:59:29;;;;;;;3.87;2.33;;;9.40;99.90;;;;;;6196539;23;20457;-86
2022/11/21 18:02:08;;;;;;;4.77;2.93;;;9.50;99.70;;;;;;6184534;23;20447;-89
2022/11/21 18:04:48;;;;;;;4.63;2.70;;;9.40;99.40;;;;;;6184752;23;20528;-85
2022/11/21 18:07:28;;;;;;;4.20;2.13;;;9.40;99.50;;;;;;6181350;23;20973;-86
2022/11/21 18:10:00;;;;;;;7.70;3.17;;;9.30;99.80;;;;;;6180923;23;20414;-87
2022/11/21 18:12:56;;;;;;;6.43;2.70;;;9.30;99.80;;;;;;6183054;23;20409;-88
2022/11/21 18:15:35;;;;;;;6.00;3.17;;;9.30;99.90;;;;;;6190598;23;20434;-86
2022/11/21 18:18:06;;;;;;;3.60;2.40;;;9.30;99.90;;;;;;6188956;23;20442;-87
2022/11/21 18:20:43;;;;;;;4.17;2.33;;;9.20;99.90;;;;;;6190024;23;20485;-89
2022/11/21 18:23:26;;;;;;;2.70;1.80;;;9.40;99.90;;;;;;6190594;23;20524;-87
2022/11/21 18:25:53;;;;;;;3.70;2.30;;;9.40;99.40;;;;;;6186827;23;20533;-87
2022/11/21 18:28:39;;;;;;;3.47;1.80;;;9.50;99.30;;;;;;6190190;23;20417;-87
2022/11/21 18:31:39;;;;;;;3.00;1.97;;;9.40;99.20;;;;;;6204729;23;20410;-86
2022/11/21 18:34:18;;;;;;;2.87;2.33;;;9.40;99.10;;;;;;6204548;23;20430;-87
2022/11/21 18:37:11;;;;;;;4.40;2.07;;;9.10;99.70;;;;;;6168685;23;20402;-88
2022/11/21 18:39:55;;;;;;;7.70;2.30;;;9.30;99.50;;;;;;6180592;23;20418;-87
2022/11/21 18:42:38;;;;;;;2.80;1.90;;;9.50;99.30;;;;;;6188766;23;20407;-87
2022/11/21 18:45:22;;;;;;;3.33;2.00;;;9.30;99.40;;;;;;6183823;23;20485;-87
2022/11/21 18:48:25;;;;;;;5.00;2.60;;;9.40;99.20;;;;;;6184896;23;20433;-88
2022/11/21 18:51:30;;;;;;;5.30;2.10;;;9.20;99.40;;;;;;6222579;23;20399;-85
2022/11/21 18:54:17;;;;;;;5.00;2.50;;;9.20;99.70;;;;;;6199792;23;20418;-86
2022/11/21 18:57:13;;;;;;;5.87;2.07;;;9.40;99.70;;;;;;6200292;23;20421;-87
2022/11/21 19:00:46;;;;;;;2.97;2.40;;;9.20;99.70;;;;;;6201838;23;20466;-88
2022/11/21 19:03:18;;;;;;;6.00;3.00;;;9.40;99.80;;;;;;6199292;23;20414;-89
2022/11/21 19:09:27;;;;;;;3.77;2.33;;;9.20;99.90;;;;;;6171304;23;20461;-87
2022/11/21 19:12:16;;;;;;;3.07;2.40;;;9.40;99.90;;;;;;6159565;23;20399;-87
2022/11/21 19:17:44;;;;;;;4.73;2.90;;;9.30;99.80;;;;;;6181057;23;20505;-86
2022/11/21 19:21:06;;;;;;;7.93;2.50;;;9.40;99.90;;;;;;6180986;23;20445;-86
2022/11/21 19:26:17;;;;;;;6.43;2.80;;;9.40;99.90;;;;;;6206286;23;20937;-87
2022/11/21 19:28:57;;;;;;;5.27;2.47;;;9.60;99.80;;;;;;6210816;23;20720;-85
2022/11/21 19:31:34;;;;;;;4.30;2.80;;;9.70;99.50;;;;;;6208195;23;20485;-86
2022/11/21 19:34:22;;;;;;;4.90;2.67;;;9.50;99.60;;;;;;6207256;23;20426;-88
2022/11/21 19:37:18;;;;;;;7.20;3.03;;;9.70;99.70;;;;;;6209569;23;20423;-87
2022/11/21 19:40:01;;;;;;;6.43;2.73;;;9.60;99.90;;;;;;6199715;23;20425;-87
2022/11/21 19:42:42;;;;;;;10.57;2.50;;;9.50;99.70;;;;;;6210599;23;20987;-88
2022/11/21 19:45:18;;;;;;;3.27;2.50;;;9.30;99.90;;;;;;6213518;23;20439;-86
2022/11/21 19:48:01;;;;;;;5.93;3.40;;;9.30;99.90;;;;;;6206482;23;20425;-85
2022/11/21 19:51:05;;;;;;;5.07;2.90;;;9.50;99.90;;;;;;6210995;23;20485;-85
2022/11/21 19:54:15;;;;;;;4.90;2.83;;;9.70;99.70;;;;;;6208739;23;20428;-87
2022/11/21 19:59:44;;;;;;;5.83;2.50;;;9.80;99.50;;;;;;6203447;23;20435;-85
2022/11/21 20:02:26;;;;;;;7.63;3.23;;;9.70;99.30;;;;;;6214208;23;20705;-86
2022/11/21 20:05:01;;;;;;;4.90;3.17;;;9.70;99.30;;;;;;6209457;23;20432;-89
2022/11/21 20:07:48;;;;;;;4.10;2.93;;;9.80;99.20;;;;;;6193722;23;20430;-88
2022/11/21 20:10:34;;;;;;;8.60;3.27;;;9.70;99.10;;;;;;6211243;23;20417;-87
2022/11/21 20:13:18;;;;;;;4.97;2.40;;;9.70;99.30;;;;;;6148616;23;20404;-87
2022/11/21 20:15:50;;;;;;;6.87;2.30;;;9.70;99.40;;;;;;6127539;23;20439;-86
2022/11/21 20:18:34;;;;;;;3.27;2.13;;;9.60;99.10;;;;;;6148325;23;20425;-86
2022/11/21 20:21:09;;;;;;;4.03;2.50;;;9.40;99.60;;;;;;6128333;23;21092;-84
2022/11/21 20:23:47;;;;;;;3.97;2.73;;;9.40;99.90;;;;;;6127296;23;20829;-86
2022/11/21 20:26:40;;;;;;;4.70;2.40;;;9.30;99.90;;;;;;6123256;23;20506;-86
2022/11/21 20:29:39;;;;;;;3.63;2.20;;;9.40;99.90;;;;;;6128312;23;20909;-85
2022/11/21 20:32:35;;;;;;;7.73;2.67;;;9.50;99.90;;;;;;6134475;23;20407;-85
2022/11/21 20:35:14;;;;;;;4.83;2.17;;;9.50;99.90;;;;;;6126027;23;20522;-86
2022/11/21 20:37:47;;;;;;;5.13;2.50;;;9.40;99.90;;;;;;6131867;23;20415;-87
2022/11/21 20:40:26;;;;;;;3.20;1.77;;;9.40;99.90;;;;;;6125626;23;20466;-86
2022/11/21 20:43:09;;;;;;;4.57;2.30;;;9.30;99.90;;;;;;6130960;23;20425;-87
2022/11/21 20:45:37;;;;;;;7.33;2.70;;;9.30;99.90;;;;;;6167060;23;20427;-89
2022/11/21 20:48:25;;;;;;;8.70;2.43;;;9.40;99.90;;;;;;6146039;23;20396;-86
2022/11/21 20:51:34;;;;;;;3.07;2.37;;;9.30;99.90;;;;;;6130923;23;20407;-85
2022/11/21 20:54:21;;;;;;;6.10;2.67;;;9.30;99.90;;;;;;6116619;23;20454;-88
2022/11/21 20:56:57;;;;;;;4.23;2.47;;;9.10;99.90;;;;;;6178215;23;20416;-87
2022/11/21 21:06:30;;;;;;;7.60;3.23;;;9.40;99.90;;;;;;6153193;23;20902;-90
2022/11/21 21:13:43;;;;;;;3.13;2.30;;;9.50;99.90;;;;;;6023005;23;20466;-86
2022/11/21 21:17:09;;;;;;;4.20;2.37;;;9.60;99.90;;;;;;6024113;23;20641;-86
2022/11/21 21:19:51;;;;;;;7.33;2.53;;;9.60;99.90;;;;;;6060496;23;20438;-86
2022/11/21 21:26:37;;;;;;;3.90;1.97;;;9.20;99.90;;;;;;6092350;23;20388;-86
2022/11/21 22:04:12;;;;;;;4.00;2.57;;;9.50;99.90;;;;;;6145075;23;20419;-85
2022/11/21 22:07:33;;;;;;;2.17;1.63;;;9.60;99.90;;;;;;6040984;23;20430;-89
2022/11/21 22:10:07;;;;;;;3.60;1.97;;;9.60;99.90;;;;;;6033189;23;20425;-87
2022/11/21 22:12:49;;;;;;;4.67;1.73;;;9.60;99.90;;;;;;6011076;23;20418;-88
2022/11/21 22:15:24;;;;;;;2.93;1.60;;;9.50;99.90;;;;;;6012087;23;20545;-86
2022/11/21 22:17:56;;;;;;;2.93;1.57;;;9.60;99.90;;;;;;6058801;23;20448;-87
2022/11/21 22:20:32;;;;;;;7.40;1.80;;;9.70;99.90;;;;;;6098701;23;20426;-86
2022/11/21 22:23:03;;;;;;;4.60;1.60;;;9.50;99.90;;;;;;6098220;23;20451;-86
2022/11/21 22:25:57;;;;;;;4.87;1.80;;;9.40;99.90;;;;;;6102523;23;20463;-85
2022/11/21 22:28:31;;;;;;;10.93;2.27;;;9.50;99.90;;;;;;6097693;23;20943;-89
2022/11/21 22:31:01;;;;;;;3.50;1.57;;;9.50;99.90;;;;;;6098470;23;20751;-86
2022/11/21 22:33:42;;;;;;;3.47;1.90;;;9.30;99.90;;;;;;6099654;23;20416;-87
2022/11/21 22:37:15;;;;;;;;;;;;;;;;;;;;;
2022/11/21 22:43:55;;;;;;;3.63;1.60;;;9.50;99.90;;;;;;6127640;23;20368;-87
2022/11/21 22:46:37;;;;;;;5.17;2.00;;;9.50;99.90;;;;;;6102012;23;20405;-86
2022/11/21 22:49:09;;;;;;;3.63;1.70;;;9.40;99.90;;;;;;6123526;23;20404;-87
2022/11/21 22:51:40;;;;;;;4.10;1.00;;;9.40;99.90;;;;;;6097835;23;20421;-86
2022/11/21 22:54:19;;;;;;;6.67;2.10;;;9.60;99.90;;;;;;6124386;23;20435;-87
2022/11/21 22:57:01;;;;;;;1.93;1.73;;;9.40;99.90;;;;;;6100131;23;20587;-87
2022/11/21 23:07:18;;;;;;;3.47;2.27;;;9.40;99.90;;;;;;6123410;23;20379;-86
2022/11/21 23:09:51;;;;;;;3.10;1.80;;;9.50;99.90;;;;;;6141930;23;20436;-86
2022/11/21 23:12:22;;;;;;;4.63;1.47;;;9.50;99.90;;;;;;6115546;23;20484;-86
2022/11/21 23:15:03;;;;;;;3.67;1.50;;;9.50;99.90;;;;;;6096711;23;20503;-86
2022/11/21 23:17:33;;;;;;;4.60;2.27;;;9.50;99.90;;;;;;6093600;23;20419;-88
2022/11/21 23:20:06;;;;;;;3.90;1.50;;;9.50;99.90;;;;;;6092224;23;20416;-86
2022/11/21 23:22:41;;;;;;;6.63;2.20;;;9.50;99.90;;;;;;6117233;23;20443;-85
2022/11/21 23:25:12;;;;;;;5.83;1.87;;;9.40;99.90;;;;;;6093746;23;20432;-87
2022/11/21 23:27:41;;;;;;;6.07;1.57;;;9.40;99.90;;;;;;6093485;23;20420;-86
2022/11/21 23:30:21;;;;;;;2.43;1.30;;;9.30;99.90;;;;;;6095434;23;20484;-86
2022/11/21 23:33:01;;;;;;;3.03;2.20;;;9.20;99.90;;;;;;6099621;23;21119;-86
2022/11/21 23:35:34;;;;;;;3.60;1.57;;;9.20;99.90;;;;;;6093510;23;20442;-87
2022/11/21 23:38:06;;;;;;;2.40;1.20;;;9.20;99.90;;;;;;6093962;23;20423;-85
2022/11/21 23:40:46;;;;;;;3.93;1.77;;;9.20;99.90;;;;;;6119097;23;20971;-87
2022/11/21 23:43:19;;;;;;;6.90;1.83;;;9.10;99.90;;;;;;6117415;23;20475;-87
2022/11/21 23:46:01;;;;;;;3.60;1.87;;;9.10;99.90;;;;;;6094614;23;20757;-87
2022/11/21 23:48:43;;;;;;;2.20;1.67;;;9.20;99.90;;;;;;6118738;23;20416;-85
2022/11/21 23:51:33;;;;;;;6.40;2.47;;;9.20;99.90;;;;;;6098238;23;20419;-86
2022/11/21 23:54:16;;;;;;;3.30;1.63;;;9.30;99.90;;;;;;6119047;23;20446;-85
2022/11/21 23:56:53;;;;;;;3.07;1.30;;;9.30;99.90;;;;;;6096831;23;20473;-87
2022/11/21 23:59:41;;;;;;;;;;;;;;;;;;;;;
